createdAt,value
2017-12-09T00:02:24.940Z,73.60
2017-12-09T00:04:53.261Z,73.40
2017-12-09T00:07:21.553Z,73.50
2017-12-09T00:09:49.831Z,73.50
2017-12-09T00:12:18.140Z,73.60
2017-12-09T00:14:46.420Z,73.20
2017-12-09T00:17:14.729Z,73.30
2017-12-09T00:19:43.013Z,73.30
2017-12-09T00:22:11.292Z,73.30
2017-12-09T00:24:39.592Z,73.00
2017-12-09T00:27:07.872Z,73.60
2017-12-09T00:29:36.175Z,74.00
2017-12-09T00:32:04.457Z,73.40
2017-12-09T00:34:32.773Z,73.70
2017-12-09T00:37:01.081Z,74.20
2017-12-09T00:39:29.370Z,74.10
2017-12-09T00:41:57.676Z,74.40
2017-12-09T00:44:25.966Z,74.50
2017-12-09T00:46:54.301Z,75.00
2017-12-09T00:49:22.584Z,74.30
2017-12-09T00:51:50.880Z,74.80
2017-12-09T00:54:19.189Z,74.70
2017-12-09T00:56:47.472Z,74.30
2017-12-09T00:59:15.784Z,74.40
2017-12-09T01:01:44.060Z,74.70
2017-12-09T01:04:12.372Z,74.50
2017-12-09T01:06:40.660Z,74.30
2017-12-09T01:09:08.972Z,74.80
2017-12-09T01:11:37.288Z,74.40
2017-12-09T01:14:05.580Z,74.00
2017-12-09T01:16:45.656Z,72.50
2017-12-09T01:19:13.940Z,73.00
2017-12-09T01:21:42.266Z,73.10
2017-12-09T01:24:10.553Z,73.20
2017-12-09T01:26:38.836Z,73.30
2017-12-09T01:29:07.144Z,73.00
2017-12-09T01:31:35.420Z,73.00
2017-12-09T01:34:03.720Z,73.30
2017-12-09T01:36:31.999Z,72.20
2017-12-09T01:39:00.332Z,72.60
2017-12-09T01:41:28.608Z,72.80
2017-12-09T01:43:56.891Z,72.80
2017-12-09T01:46:25.192Z,73.20
2017-12-09T01:48:53.477Z,73.20
2017-12-09T01:51:21.785Z,73.30
2017-12-09T01:53:50.064Z,74.00
2017-12-09T01:56:18.380Z,73.50
2017-12-09T01:58:46.665Z,73.60
2017-12-09T02:01:14.948Z,73.40
2017-12-09T02:03:43.257Z,73.30
2017-12-09T02:06:11.543Z,73.30
2017-12-09T02:08:39.856Z,73.40
2017-12-09T02:11:08.190Z,73.40
2017-12-09T02:13:36.569Z,73.90
2017-12-09T02:16:04.854Z,73.80
2017-12-09T02:18:33.176Z,73.90
2017-12-09T02:21:01.469Z,73.90
2017-12-09T02:23:29.760Z,73.80
2017-12-09T02:25:58.076Z,73.70
2017-12-09T02:28:26.360Z,74.40
2017-12-09T02:30:54.667Z,73.70
2017-12-09T02:33:22.953Z,73.40
2017-12-09T02:35:51.284Z,73.40
2017-12-09T02:38:19.569Z,73.60
2017-12-09T02:40:47.868Z,73.80
2017-12-09T02:43:16.179Z,74.10
2017-12-09T02:45:44.501Z,74.30
2017-12-09T02:48:12.813Z,74.30
2017-12-09T02:50:41.123Z,74.20
2017-12-09T02:53:09.452Z,74.40
2017-12-09T02:55:37.740Z,74.60
2017-12-09T02:58:06.023Z,74.30
2017-12-09T03:00:34.325Z,74.60
2017-12-09T03:03:02.617Z,74.80
2017-12-09T03:05:30.924Z,74.70
2017-12-09T03:07:59.199Z,75.10
2017-12-09T03:10:27.529Z,75.10
2017-12-09T03:12:55.820Z,75.40
2017-12-09T03:15:24.104Z,74.60
2017-12-09T03:17:52.411Z,74.40
2017-12-09T03:20:20.693Z,74.70
2017-12-09T03:22:49.001Z,74.70
2017-12-09T03:25:17.288Z,74.20
2017-12-09T03:27:45.600Z,74.20
2017-12-09T03:30:13.885Z,74.10
2017-12-09T03:32:42.167Z,74.10
2017-12-09T03:35:10.470Z,74.80
2017-12-09T03:37:38.758Z,74.70
2017-12-09T03:40:07.055Z,74.20
2017-12-09T03:42:35.331Z,74.50
2017-12-09T03:45:03.663Z,74.20
2017-12-09T03:47:31.941Z,74.10
2017-12-09T03:50:00.228Z,74.00
2017-12-09T03:52:28.533Z,74.30
2017-12-09T03:54:56.817Z,74.70
2017-12-09T03:57:25.132Z,74.70
2017-12-09T03:59:53.412Z,74.00
2017-12-09T04:02:21.724Z,74.10
2017-12-09T04:04:50.004Z,74.20
2017-12-09T04:07:18.288Z,75.20
2017-12-09T04:09:46.592Z,74.20
2017-12-09T04:12:14.873Z,74.10
2017-12-09T04:14:43.195Z,74.20
2017-12-09T04:17:11.486Z,73.80
2017-12-09T04:19:39.765Z,73.90
2017-12-09T04:22:08.064Z,74.30
2017-12-09T04:24:36.340Z,74.70
2017-12-09T04:27:04.660Z,74.70
2017-12-09T04:29:32.942Z,74.90
2017-12-09T04:32:01.224Z,74.60
2017-12-09T04:34:29.525Z,74.50
2017-12-09T04:36:57.802Z,74.40
2017-12-09T04:39:26.113Z,74.20
2017-12-09T04:41:54.407Z,74.20
2017-12-09T04:44:22.698Z,73.60
2017-12-09T04:46:51.000Z,72.90
2017-12-09T04:49:19.292Z,72.70
2017-12-09T04:51:47.600Z,72.70
2017-12-09T04:54:15.880Z,72.60
2017-12-09T04:56:44.191Z,72.50
2017-12-09T04:59:12.468Z,72.00
2017-12-09T05:01:40.743Z,72.10
2017-12-09T05:04:09.054Z,72.70
2017-12-09T05:06:37.332Z,73.10
2017-12-09T05:09:05.631Z,72.70
2017-12-09T05:11:33.921Z,73.10
2017-12-09T05:14:02.232Z,73.50
2017-12-09T05:16:30.508Z,73.40
2017-12-09T05:18:58.788Z,73.10
2017-12-09T05:21:27.088Z,73.70
2017-12-09T05:23:55.368Z,73.70
2017-12-09T05:26:23.673Z,74.00
2017-12-09T05:28:51.952Z,74.20
2017-12-09T05:31:20.263Z,73.70
2017-12-09T05:33:48.540Z,74.10
2017-12-09T05:36:16.824Z,74.10
2017-12-09T05:38:45.128Z,74.00
2017-12-09T05:41:13.416Z,73.60
2017-12-09T05:43:41.725Z,73.80
2017-12-09T05:46:10.008Z,73.80
2017-12-09T05:48:38.320Z,73.10
2017-12-09T05:51:06.599Z,73.10
2017-12-09T05:53:34.888Z,73.20
2017-12-09T05:56:03.191Z,73.00
2017-12-09T05:58:31.480Z,73.10
2017-12-09T06:00:59.788Z,72.60
2017-12-09T06:03:28.078Z,72.80
2017-12-09T06:05:56.392Z,72.90
2017-12-09T06:08:24.672Z,72.50
2017-12-09T06:10:52.958Z,72.60
2017-12-09T06:13:21.264Z,73.00
2017-12-09T06:15:49.545Z,72.40
2017-12-09T06:18:18.812Z,73.00
2017-12-09T06:20:47.104Z,73.10
2017-12-09T06:23:15.425Z,73.00
2017-12-09T06:25:43.712Z,73.50
2017-12-09T06:28:11.991Z,73.70
2017-12-09T06:30:40.301Z,74.10
2017-12-09T06:33:08.592Z,74.40
2017-12-09T06:35:36.900Z,74.50
2017-12-09T06:38:05.193Z,74.60
2017-12-09T06:40:33.619Z,74.60
2017-12-09T06:43:01.912Z,75.00
2017-12-09T06:45:30.201Z,75.10
2017-12-09T06:47:58.509Z,75.40
2017-12-09T06:50:26.794Z,75.40
2017-12-09T06:52:55.108Z,75.20
2017-12-09T06:55:23.392Z,75.30
2017-12-09T06:57:51.732Z,75.60
2017-12-09T07:00:20.065Z,75.70
2017-12-09T07:02:48.352Z,75.50
2017-12-09T07:05:16.676Z,75.90
2017-12-09T07:07:44.964Z,76.00
2017-12-09T07:10:13.270Z,76.00
2017-12-09T07:12:41.565Z,76.20
2017-12-09T07:15:10.842Z,75.80
2017-12-09T07:17:39.133Z,75.60
2017-12-09T07:20:07.412Z,75.50
2017-12-09T07:22:35.719Z,75.10
2017-12-09T07:25:04.009Z,75.30
2017-12-09T07:27:32.307Z,75.50
2017-12-09T07:30:00.588Z,75.20
2017-12-09T07:32:28.900Z,75.10
2017-12-09T07:34:57.176Z,75.50
2017-12-09T07:37:25.453Z,76.00
2017-12-09T07:39:53.770Z,75.90
2017-12-09T07:42:22.048Z,76.00
2017-12-09T07:44:50.352Z,75.70
2017-12-09T07:47:18.632Z,75.90
2017-12-09T07:49:46.944Z,75.60
2017-12-09T07:52:15.228Z,75.70
2017-12-09T07:54:43.507Z,75.50
2017-12-09T07:57:11.813Z,75.00
2017-12-09T07:59:40.094Z,74.70
2017-12-09T08:02:08.411Z,74.50
2017-12-09T08:04:36.700Z,74.30
2017-12-09T08:07:04.986Z,74.10
2017-12-09T08:09:33.296Z,73.60
2017-12-09T08:12:01.576Z,73.30
2017-12-09T08:14:29.888Z,73.70
2017-12-09T08:16:58.174Z,73.90
2017-12-09T08:19:26.456Z,73.90
2017-12-09T08:21:54.764Z,73.90
2017-12-09T08:24:23.048Z,74.00
2017-12-09T08:26:51.356Z,73.90
2017-12-09T08:29:19.631Z,74.20
2017-12-09T08:31:47.944Z,75.30
2017-12-09T08:34:16.224Z,74.30
2017-12-09T08:36:44.499Z,74.40
2017-12-09T08:39:12.800Z,74.30
2017-12-09T08:41:41.080Z,74.40
2017-12-09T08:44:10.355Z,74.30
2017-12-09T08:46:38.636Z,74.50
2017-12-09T08:49:06.922Z,75.10
2017-12-09T08:51:35.233Z,75.00
2017-12-09T08:54:03.512Z,73.70
2017-12-09T08:56:31.859Z,73.50
2017-12-09T08:59:00.128Z,72.80
2017-12-09T09:01:28.444Z,72.60
2017-12-09T09:03:56.776Z,73.00
2017-12-09T09:06:25.029Z,72.70
2017-12-09T09:08:53.331Z,72.70
2017-12-09T09:11:21.617Z,72.70
2017-12-09T09:13:49.147Z,72.70
2017-12-09T09:16:17.428Z,73.00
2017-12-09T09:18:45.748Z,73.20
2017-12-09T09:21:14.036Z,73.20
2017-12-09T09:23:42.319Z,72.70
2017-12-09T09:26:10.620Z,72.60
2017-12-09T09:28:38.909Z,72.50
2017-12-09T09:31:07.212Z,72.20
2017-12-09T09:33:35.503Z,72.50
2017-12-09T09:36:03.832Z,71.60
2017-12-09T09:38:32.131Z,71.80
2017-12-09T09:41:00.417Z,72.00
2017-12-09T09:43:28.736Z,72.20
2017-12-09T09:45:57.040Z,71.80
2017-12-09T09:48:25.361Z,72.60
2017-12-09T09:50:53.652Z,72.10
2017-12-09T09:53:21.944Z,72.30
2017-12-09T09:55:50.247Z,72.60
2017-12-09T09:58:18.519Z,72.40
2017-12-09T10:00:46.840Z,72.00
2017-12-09T10:03:15.124Z,71.70
2017-12-09T10:05:43.409Z,71.40
2017-12-09T10:08:11.707Z,71.80
2017-12-09T10:10:39.988Z,71.30
2017-12-09T10:13:08.309Z,71.50
2017-12-09T10:15:36.591Z,72.00
2017-12-09T10:18:04.868Z,72.20
2017-12-09T10:20:32.408Z,72.30
2017-12-09T10:23:00.701Z,72.30
2017-12-09T10:25:29.026Z,72.40
2017-12-09T10:27:57.308Z,72.30
2017-12-09T10:30:25.595Z,72.60
2017-12-09T10:32:53.904Z,72.30
2017-12-09T10:35:22.180Z,72.50
2017-12-09T10:37:50.495Z,72.40
2017-12-09T10:40:18.772Z,72.70
2017-12-09T10:42:47.061Z,73.10
2017-12-09T10:45:15.355Z,72.90
2017-12-09T10:47:43.640Z,73.50
2017-12-09T10:50:11.936Z,73.70
2017-12-09T10:52:40.221Z,73.70
2017-12-09T10:55:08.566Z,73.60
2017-12-09T10:57:36.844Z,73.30
2017-12-09T11:00:05.132Z,73.10
2017-12-09T11:02:33.431Z,73.40
2017-12-09T11:05:01.717Z,73.50
2017-12-09T11:07:30.036Z,73.50
2017-12-09T11:09:58.316Z,73.70
2017-12-09T11:12:26.628Z,73.20
2017-12-09T11:14:54.914Z,73.60
2017-12-09T11:17:23.193Z,73.80
2017-12-09T11:19:51.492Z,74.20
2017-12-09T11:22:19.773Z,73.20
2017-12-09T11:24:48.072Z,73.10
2017-12-09T11:27:16.356Z,73.20
2017-12-09T11:29:44.668Z,73.30
2017-12-09T11:32:12.951Z,73.20
2017-12-09T11:34:40.465Z,73.10
2017-12-09T11:37:08.810Z,71.80
2017-12-09T11:39:37.097Z,72.10
2017-12-09T11:42:05.413Z,72.00
2017-12-09T11:44:33.716Z,71.70
2017-12-09T11:47:02.036Z,72.20
2017-12-09T11:49:30.308Z,72.20
2017-12-09T11:51:58.594Z,71.40
2017-12-09T11:54:26.900Z,70.70
2017-12-09T11:56:55.184Z,70.80
2017-12-09T11:59:23.484Z,70.30
2017-12-09T12:01:51.768Z,70.40
2017-12-09T12:04:20.082Z,70.00
2017-12-09T12:06:48.369Z,70.00
2017-12-09T12:09:16.649Z,70.40
2017-12-09T12:11:44.957Z,70.60
2017-12-09T12:14:13.235Z,70.50
2017-12-09T12:16:41.540Z,71.00
2017-12-09T12:19:09.819Z,71.10
2017-12-09T12:21:38.130Z,71.00
2017-12-09T12:24:06.413Z,70.80
2017-12-09T12:26:34.696Z,71.30
2017-12-09T12:29:02.996Z,72.10
2017-12-09T12:31:31.275Z,72.10
2017-12-09T12:33:59.576Z,72.20
2017-12-09T12:36:27.868Z,72.40
2017-12-09T12:38:56.187Z,72.90
2017-12-09T12:41:24.488Z,73.10
2017-12-09T12:43:52.772Z,73.10
2017-12-09T12:46:21.075Z,72.80
2017-12-09T12:48:49.352Z,73.20
2017-12-09T12:51:17.651Z,73.70
2017-12-09T12:53:45.948Z,73.80
2017-12-09T12:56:14.264Z,73.50
2017-12-09T12:58:42.552Z,73.40
2017-12-09T13:01:10.836Z,73.50
2017-12-09T13:03:39.148Z,73.30
2017-12-09T13:06:07.440Z,73.50
2017-12-09T13:08:35.744Z,73.00
2017-12-09T13:11:04.040Z,72.20
2017-12-09T13:13:32.360Z,72.30
2017-12-09T13:16:00.649Z,72.20
2017-12-09T13:18:28.940Z,72.20
2017-12-09T13:20:57.242Z,72.20
2017-12-09T13:23:25.536Z,70.60
2017-12-09T13:25:53.837Z,71.10
2017-12-09T13:28:22.126Z,71.60
2017-12-09T13:30:50.443Z,71.80
2017-12-09T13:33:18.727Z,72.00
2017-12-09T13:35:47.016Z,72.10
2017-12-09T13:38:15.322Z,71.90
2017-12-09T13:40:43.607Z,71.30
2017-12-09T13:43:11.908Z,71.70
2017-12-09T13:45:40.205Z,71.60
2017-12-09T13:48:08.516Z,70.50
2017-12-09T13:50:36.791Z,70.90
2017-12-09T13:53:05.068Z,71.40
2017-12-09T13:55:33.367Z,71.20
2017-12-09T13:58:01.648Z,70.70
2017-12-09T14:00:30.026Z,71.40
2017-12-09T14:02:58.314Z,71.60
2017-12-09T14:05:26.896Z,72.00
2017-12-09T14:07:56.300Z,72.20
2017-12-09T14:10:24.841Z,72.10
2017-12-09T14:12:53.189Z,71.40
2017-12-09T14:15:22.923Z,71.40
2017-12-09T14:17:51.563Z,71.70
2017-12-09T14:20:20.017Z,71.30
2017-12-09T14:22:48.319Z,70.90
2017-12-09T14:25:16.625Z,70.20
2017-12-09T14:27:44.909Z,70.50
2017-12-09T14:30:13.216Z,70.30
2017-12-09T14:32:41.504Z,69.40
2017-12-09T14:35:09.832Z,69.40
2017-12-09T14:37:38.109Z,69.20
2017-12-09T14:40:06.396Z,69.70
2017-12-09T14:42:34.704Z,69.40
2017-12-09T14:45:02.987Z,68.60
2017-12-09T14:47:31.284Z,69.00
2017-12-09T14:49:59.581Z,69.10
2017-12-09T14:52:27.892Z,68.60
2017-12-09T14:54:56.181Z,69.30
2017-12-09T14:57:24.464Z,69.80
2017-12-09T14:59:52.759Z,70.20
2017-12-09T15:02:21.040Z,70.50
2017-12-09T15:04:49.340Z,70.70
2017-12-09T15:07:17.621Z,70.00
2017-12-09T15:09:45.937Z,70.20
2017-12-09T15:12:14.221Z,70.60
2017-12-09T15:14:42.505Z,70.90
2017-12-09T15:17:10.835Z,70.80
2017-12-09T15:19:40.221Z,70.60
2017-12-09T15:22:09.152Z,70.80
2017-12-09T15:24:37.439Z,71.20
2017-12-09T15:27:05.759Z,70.90
2017-12-09T15:29:34.038Z,70.90
2017-12-09T15:32:02.363Z,69.90
2017-12-09T15:34:30.664Z,70.50
2017-12-09T15:36:58.949Z,70.60
2017-12-09T15:39:27.252Z,70.70
2017-12-09T15:41:55.533Z,71.40
2017-12-09T15:44:23.861Z,70.70
2017-12-09T15:46:52.144Z,70.20
2017-12-09T15:49:20.426Z,70.40
2017-12-09T15:51:48.727Z,71.00
2017-12-09T15:54:17.017Z,71.40
2017-12-09T15:56:45.325Z,71.20
2017-12-09T15:59:13.604Z,71.30
2017-12-09T16:01:41.929Z,71.40
2017-12-09T16:04:10.212Z,71.60
2017-12-09T16:06:38.496Z,71.30
2017-12-09T16:09:06.802Z,71.10
2017-12-09T16:11:35.079Z,70.50
2017-12-09T16:14:03.393Z,70.20
2017-12-09T16:16:31.677Z,70.50
2017-12-09T16:18:59.951Z,70.40
2017-12-09T16:21:28.252Z,70.30
2017-12-09T16:23:56.537Z,70.50
2017-12-09T16:26:24.857Z,70.40
2017-12-09T16:28:53.135Z,70.70
2017-12-09T16:31:21.425Z,70.60
2017-12-09T16:33:49.726Z,70.90
2017-12-09T16:36:17.999Z,71.10
2017-12-09T16:38:46.301Z,71.20
2017-12-09T16:41:14.579Z,71.20
2017-12-09T16:43:42.893Z,71.80
2017-12-09T16:46:11.176Z,71.60
2017-12-09T16:48:39.461Z,71.50
2017-12-09T16:51:07.764Z,71.40
2017-12-09T16:53:36.046Z,71.40
2017-12-09T16:56:04.352Z,71.50
2017-12-09T16:58:32.627Z,71.70
2017-12-09T17:01:00.917Z,71.80
2017-12-09T17:03:29.224Z,71.80
2017-12-09T17:05:57.504Z,71.70
2017-12-09T17:08:25.817Z,71.60
2017-12-09T17:10:54.091Z,72.00
2017-12-09T17:13:22.418Z,73.00
2017-12-09T17:15:51.712Z,72.10
2017-12-09T17:18:19.988Z,72.00
2017-12-09T17:20:48.288Z,72.10
2017-12-09T17:23:16.567Z,72.00
2017-12-09T17:25:44.872Z,72.10
2017-12-09T17:28:13.168Z,73.10
2017-12-09T17:30:41.480Z,72.40
2017-12-09T17:33:09.760Z,73.20
2017-12-09T17:35:38.044Z,72.50
2017-12-09T17:38:06.341Z,72.50
2017-12-09T17:40:34.627Z,72.90
2017-12-09T17:43:02.930Z,73.20
2017-12-09T17:45:31.318Z,73.20
2017-12-09T17:47:59.631Z,73.00
2017-12-09T17:50:27.913Z,73.20
2017-12-09T17:52:56.192Z,72.90
2017-12-09T17:55:24.495Z,72.90
2017-12-09T17:57:52.947Z,73.10
2017-12-09T18:00:21.258Z,73.30
2017-12-09T18:02:49.544Z,73.30
2017-12-09T18:05:17.833Z,73.30
2017-12-09T18:07:46.137Z,73.30
2017-12-09T18:10:14.432Z,73.40
2017-12-09T18:12:42.744Z,73.40
2017-12-09T18:15:11.028Z,73.60
2017-12-09T18:17:39.357Z,73.70
2017-12-09T18:20:07.631Z,73.90
2017-12-09T18:22:35.915Z,73.90
2017-12-09T18:25:04.229Z,74.00
2017-12-09T18:27:32.509Z,74.00
2017-12-09T18:30:00.813Z,74.00
2017-12-09T18:32:29.090Z,74.00
2017-12-09T18:34:57.419Z,74.10
2017-12-09T18:37:25.696Z,74.70
2017-12-09T18:39:53.984Z,73.90
2017-12-09T18:42:22.290Z,73.90
2017-12-09T18:44:50.609Z,73.90
2017-12-09T18:47:18.924Z,74.20
2017-12-09T18:49:47.207Z,74.40
2017-12-09T18:52:15.532Z,74.50
2017-12-09T18:54:43.820Z,74.50
2017-12-09T18:57:12.107Z,74.70
2017-12-09T18:59:40.406Z,74.80
2017-12-09T19:02:08.693Z,74.90
2017-12-09T19:04:37.004Z,75.10
2017-12-09T19:07:05.284Z,76.10
2017-12-09T19:09:33.600Z,75.20
2017-12-09T19:12:01.886Z,75.10
2017-12-09T19:14:30.201Z,74.80
2017-12-09T19:16:58.516Z,74.80
2017-12-09T19:19:26.805Z,75.00
2017-12-09T19:21:55.117Z,75.20
2017-12-09T19:24:23.405Z,75.20
2017-12-09T19:26:51.728Z,75.30
2017-12-09T19:29:20.005Z,75.50
2017-12-09T19:31:48.295Z,75.60
2017-12-09T19:34:16.600Z,75.50
2017-12-09T19:36:44.880Z,75.40
2017-12-09T19:39:13.184Z,75.50
2017-12-09T19:41:41.476Z,75.60
2017-12-09T19:44:09.866Z,75.60
2017-12-09T19:46:38.162Z,75.50
2017-12-09T19:49:06.441Z,75.70
2017-12-09T19:51:34.754Z,75.70
2017-12-09T19:54:03.041Z,75.90
2017-12-09T19:56:31.358Z,76.10
2017-12-09T19:58:59.648Z,76.20
2017-12-09T20:01:27.977Z,76.20
2017-12-09T20:03:56.274Z,76.50
2017-12-09T20:06:24.576Z,76.80
2017-12-09T20:08:52.888Z,76.80
2017-12-09T20:11:21.172Z,77.00
2017-12-09T20:13:49.481Z,77.10
2017-12-09T20:16:17.764Z,77.40
2017-12-09T20:18:46.100Z,77.50
2017-12-09T20:21:14.379Z,77.50
2017-12-09T20:23:42.664Z,77.60
2017-12-09T20:26:10.985Z,77.70
2017-12-09T20:28:39.268Z,77.50
2017-12-09T20:31:07.589Z,77.30
2017-12-09T20:33:35.878Z,77.50
2017-12-09T20:36:04.252Z,77.30
2017-12-09T20:38:32.542Z,77.20
2017-12-09T20:41:00.824Z,77.20
2017-12-09T20:43:29.127Z,76.90
2017-12-09T20:45:57.422Z,76.80
2017-12-09T20:48:24.962Z,76.80
2017-12-09T20:50:53.239Z,76.20
2017-12-09T20:53:21.589Z,75.90
2017-12-09T20:55:49.872Z,75.80
2017-12-09T20:58:18.160Z,75.80
2017-12-09T21:00:46.479Z,76.10
2017-12-09T21:03:14.768Z,76.20
2017-12-09T21:05:43.068Z,76.30
2017-12-09T21:08:11.356Z,76.40
2017-12-09T21:10:39.692Z,76.50
2017-12-09T21:13:07.980Z,76.70
2017-12-09T21:15:36.280Z,77.10
2017-12-09T21:18:04.588Z,77.60
2017-12-09T21:20:32.876Z,77.90
2017-12-09T21:23:01.247Z,78.20
2017-12-09T21:25:29.490Z,77.90
2017-12-09T21:27:57.823Z,78.10
2017-12-09T21:30:26.119Z,78.10
2017-12-09T21:32:54.422Z,78.90
2017-12-09T21:35:22.741Z,78.20
2017-12-09T21:37:51.023Z,78.20
2017-12-09T21:40:19.324Z,78.00
2017-12-09T21:42:47.608Z,77.90
2017-12-09T21:45:15.940Z,77.80
2017-12-09T21:47:44.232Z,77.80
2017-12-09T21:50:12.520Z,76.90
2017-12-09T21:52:40.819Z,77.00
2017-12-09T21:55:09.099Z,77.00
2017-12-09T21:57:37.420Z,77.80
2017-12-09T22:00:05.723Z,77.00
2017-12-09T22:02:34.076Z,76.30
2017-12-09T22:05:02.392Z,76.10
2017-12-09T22:07:30.672Z,76.40
2017-12-09T22:09:58.970Z,76.30
2017-12-09T22:12:27.268Z,76.10
2017-12-09T22:14:55.607Z,76.50
2017-12-09T22:17:23.897Z,76.50
2017-12-09T22:19:52.178Z,76.40
2017-12-09T22:22:20.480Z,76.20
2017-12-09T22:24:48.767Z,75.90
2017-12-09T22:27:17.092Z,75.60
2017-12-09T22:29:45.377Z,75.30
2017-12-09T22:32:13.656Z,75.20
2017-12-09T22:34:42.017Z,74.90
2017-12-09T22:37:10.260Z,74.80
2017-12-09T22:39:38.567Z,74.70
2017-12-09T22:42:06.845Z,74.80
2017-12-09T22:44:35.129Z,75.00
2017-12-09T22:47:03.436Z,76.60
2017-12-09T22:49:31.728Z,76.30
2017-12-09T22:52:00.037Z,76.60
2017-12-09T22:54:28.336Z,77.00
2017-12-09T22:56:56.670Z,77.00
2017-12-09T22:59:24.957Z,76.70
2017-12-09T23:01:53.252Z,77.00
2017-12-09T23:04:21.560Z,77.70
2017-12-09T23:06:49.839Z,78.50
2017-12-09T23:09:18.153Z,79.20
2017-12-09T23:11:46.432Z,79.70
2017-12-09T23:14:14.748Z,80.10
2017-12-09T23:16:43.055Z,80.30
2017-12-09T23:19:11.355Z,80.10
2017-12-09T23:21:39.665Z,80.20
2017-12-09T23:24:07.943Z,79.50
2017-12-09T23:26:36.246Z,79.50
2017-12-09T23:29:04.542Z,79.40
2017-12-09T23:31:32.868Z,79.50
2017-12-09T23:34:01.148Z,79.30
2017-12-09T23:36:29.433Z,79.20
2017-12-09T23:38:57.736Z,78.90
2017-12-09T23:41:26.024Z,79.30
2017-12-09T23:43:54.342Z,79.10
2017-12-09T23:46:22.648Z,79.10
2017-12-09T23:48:51.006Z,79.00
2017-12-09T23:51:19.285Z,79.10
2017-12-09T23:53:47.569Z,79.00
2017-12-09T23:56:15.872Z,79.00
2017-12-09T23:58:44.156Z,79.10
